sensor_id;sensor_type;location;lat;lon;timestamp;temperature;humidity
19403;DHT22;9837;48.888;8.998;2022-10-18T03:23:03;21.70;56.60
19403;DHT22;9837;48.888;8.998;2022-10-18T05:04:50;21.60;57.50
19403;DHT22;9837;48.888;8.998;2022-10-18T05:45:10;21.60;57.60
19403;DHT22;9837;48.888;8.998;2022-10-18T05:50:43;21.90;57.20
19403;DHT22;9837;48.888;8.998;2022-10-18T09:21:20;22.40;60.00
19403;DHT22;9837;48.888;8.998;2022-10-18T09:24:34;22.60;60.10
19403;DHT22;9837;48.888;8.998;2022-10-18T09:26:48;23.00;59.40
19403;DHT22;9837;48.888;8.998;2022-10-18T09:35:56;23.70;57.40
19403;DHT22;9837;48.888;8.998;2022-10-18T09:38:27;23.90;57.10
19403;DHT22;9837;48.888;8.998;2022-10-18T09:40:56;24.10;56.80
19403;DHT22;9837;48.888;8.998;2022-10-18T09:43:27;24.30;56.90
19403;DHT22;9837;48.888;8.998;2022-10-18T09:48:30;24.70;55.90
19403;DHT22;9837;48.888;8.998;2022-10-18T09:51:27;24.90;55.50
19403;DHT22;9837;48.888;8.998;2022-10-18T09:54:30;25.20;54.90
19403;DHT22;9837;48.888;8.998;2022-10-18T09:57:14;25.20;55.50
19403;DHT22;9837;48.888;8.998;2022-10-18T09:59:46;25.50;54.70
19403;DHT22;9837;48.888;8.998;2022-10-18T10:02:22;25.50;54.60
19403;DHT22;9837;48.888;8.998;2022-10-18T10:04:48;25.50;54.60
19403;DHT22;9837;48.888;8.998;2022-10-18T10:07:20;25.50;54.50
19403;DHT22;9837;48.888;8.998;2022-10-18T10:09:49;25.40;54.60
19403;DHT22;9837;48.888;8.998;2022-10-18T10:12:46;25.30;55.20
19403;DHT22;9837;48.888;8.998;2022-10-18T10:15:23;25.50;53.80
19403;DHT22;9837;48.888;8.998;2022-10-18T10:18:00;25.60;53.60
19403;DHT22;9837;48.888;8.998;2022-10-18T10:20:36;25.50;53.30
19403;DHT22;9837;48.888;8.998;2022-10-18T10:23:26;25.30;54.10
19403;DHT22;9837;48.888;8.998;2022-10-18T10:25:54;25.30;54.30
19403;DHT22;9837;48.888;8.998;2022-10-18T10:28:25;25.40;54.20
19403;DHT22;9837;48.888;8.998;2022-10-18T10:30:52;25.20;54.50
19403;DHT22;9837;48.888;8.998;2022-10-18T10:33:36;25.30;53.90
19403;DHT22;9837;48.888;8.998;2022-10-18T10:36:05;25.50;53.30
19403;DHT22;9837;48.888;8.998;2022-10-18T10:38:39;25.50;53.70
19403;DHT22;9837;48.888;8.998;2022-10-18T10:41:18;25.50;53.60
19403;DHT22;9837;48.888;8.998;2022-10-18T10:43:44;25.60;53.40
19403;DHT22;9837;48.888;8.998;2022-10-18T10:46:16;25.70;53.50
19403;DHT22;9837;48.888;8.998;2022-10-18T10:51:13;26.20;53.00
19403;DHT22;9837;48.888;8.998;2022-10-18T10:56:14;25.80;53.10
19403;DHT22;9837;48.888;8.998;2022-10-18T10:58:41;25.70;53.60
19403;DHT22;9837;48.888;8.998;2022-10-18T11:01:28;25.70;52.90
19403;DHT22;9837;48.888;8.998;2022-10-18T11:03:57;26.00;52.80
19403;DHT22;9837;48.888;8.998;2022-10-18T11:08:55;26.20;52.00
19403;DHT22;9837;48.888;8.998;2022-10-18T11:11:28;26.00;52.40
19403;DHT22;9837;48.888;8.998;2022-10-18T11:14:08;25.40;52.80
19403;DHT22;9837;48.888;8.998;2022-10-18T11:19:33;25.30;53.80
19403;DHT22;9837;48.888;8.998;2022-10-18T11:22:04;24.80;54.00
19403;DHT22;9837;48.888;8.998;2022-10-18T11:24:33;24.80;54.60
19403;DHT22;9837;48.888;8.998;2022-10-18T11:27:19;24.40;56.40
19403;DHT22;9837;48.888;8.998;2022-10-18T11:32:27;24.30;56.00
19403;DHT22;9837;48.888;8.998;2022-10-18T11:40:49;24.90;54.80
19403;DHT22;9837;48.888;8.998;2022-10-18T11:48:52;25.20;54.60
19403;DHT22;9837;48.888;8.998;2022-10-18T11:51:55;25.20;54.30
19403;DHT22;9837;48.888;8.998;2022-10-18T12:05:05;24.70;57.20
19403;DHT22;9837;48.888;8.998;2022-10-18T12:07:56;24.40;58.00
19403;DHT22;9837;48.888;8.998;2022-10-18T12:10:23;24.50;58.40
19403;DHT22;9837;48.888;8.998;2022-10-18T12:12:53;24.40;57.80
19403;DHT22;9837;48.888;8.998;2022-10-18T12:15:24;24.20;58.60
19403;DHT22;9837;48.888;8.998;2022-10-18T12:17:57;24.20;59.00
19403;DHT22;9837;48.888;8.998;2022-10-18T12:20:31;24.40;58.30
19403;DHT22;9837;48.888;8.998;2022-10-18T12:23:19;24.50;58.00
19403;DHT22;9837;48.888;8.998;2022-10-18T12:25:51;24.80;57.40
19403;DHT22;9837;48.888;8.998;2022-10-18T12:28:40;25.10;57.30
19403;DHT22;9837;48.888;8.998;2022-10-18T12:31:29;25.40;56.70
19403;DHT22;9837;48.888;8.998;2022-10-18T12:39:55;26.10;54.50
19403;DHT22;9837;48.888;8.998;2022-10-18T12:42:25;26.00;54.20
19403;DHT22;9837;48.888;8.998;2022-10-18T12:45:06;25.70;54.50
19403;DHT22;9837;48.888;8.998;2022-10-18T12:47:41;25.30;55.10
19403;DHT22;9837;48.888;8.998;2022-10-18T12:55:44;25.10;56.40
19403;DHT22;9837;48.888;8.998;2022-10-18T13:19:19;25.20;56.60
19403;DHT22;9837;48.888;8.998;2022-10-18T13:22:20;25.20;56.90
19403;DHT22;9837;48.888;8.998;2022-10-18T13:27:52;24.70;58.00
19403;DHT22;9837;48.888;8.998;2022-10-18T13:33:33;24.60;58.40
19403;DHT22;9837;48.888;8.998;2022-10-18T13:44:34;24.70;58.60
19403;DHT22;9837;48.888;8.998;2022-10-18T14:00:30;25.30;57.30
19403;DHT22;9837;48.888;8.998;2022-10-18T14:03:31;25.40;57.30
19403;DHT22;9837;48.888;8.998;2022-10-18T14:06:22;25.40;56.90
19403;DHT22;9837;48.888;8.998;2022-10-18T14:09:02;25.50;56.60
19403;DHT22;9837;48.888;8.998;2022-10-18T14:11:40;25.50;57.20
19403;DHT22;9837;48.888;8.998;2022-10-18T14:19:28;24.60;57.30
19403;DHT22;9837;48.888;8.998;2022-10-18T14:22:11;24.50;57.60
19403;DHT22;9837;48.888;8.998;2022-10-18T14:24:43;24.50;58.10
19403;DHT22;9837;48.888;8.998;2022-10-18T14:27:30;24.50;58.20
19403;DHT22;9837;48.888;8.998;2022-10-18T14:37:32;24.70;58.20
19403;DHT22;9837;48.888;8.998;2022-10-18T14:39:58;24.70;58.40
19403;DHT22;9837;48.888;8.998;2022-10-18T14:42:25;24.70;58.40
19403;DHT22;9837;48.888;8.998;2022-10-18T14:44:52;24.90;58.10
19403;DHT22;9837;48.888;8.998;2022-10-18T14:47:26;25.00;57.60
19403;DHT22;9837;48.888;8.998;2022-10-18T14:49:52;25.10;57.70
19403;DHT22;9837;48.888;8.998;2022-10-18T14:52:31;25.10;57.70
19403;DHT22;9837;48.888;8.998;2022-10-18T14:54:58;25.10;57.50
19403;DHT22;9837;48.888;8.998;2022-10-18T14:57:28;25.10;57.50
19403;DHT22;9837;48.888;8.998;2022-10-18T14:59:59;25.00;57.30
19403;DHT22;9837;48.888;8.998;2022-10-18T15:02:28;25.00;57.70
19403;DHT22;9837;48.888;8.998;2022-10-18T15:05:32;24.90;57.60
19403;DHT22;9837;48.888;8.998;2022-10-18T15:07:58;24.80;58.10
19403;DHT22;9837;48.888;8.998;2022-10-18T15:10:32;24.90;58.10
19403;DHT22;9837;48.888;8.998;2022-10-18T15:13:00;24.90;57.90
19403;DHT22;9837;48.888;8.998;2022-10-18T15:15:30;24.90;58.10
19403;DHT22;9837;48.888;8.998;2022-10-18T15:17:58;25.00;57.90
19403;DHT22;9837;48.888;8.998;2022-10-18T15:20:27;25.20;57.70
19403;DHT22;9837;48.888;8.998;2022-10-18T15:22:53;25.20;57.20
19403;DHT22;9837;48.888;8.998;2022-10-18T15:25:26;25.20;57.50
19403;DHT22;9837;48.888;8.998;2022-10-18T15:28:00;25.20;57.20
19403;DHT22;9837;48.888;8.998;2022-10-18T15:30:37;25.10;57.30
19403;DHT22;9837;48.888;8.998;2022-10-18T15:38:24;24.90;57.60
19403;DHT22;9837;48.888;8.998;2022-10-18T15:40:51;24.80;57.90
19403;DHT22;9837;48.888;8.998;2022-10-18T15:45:59;24.60;58.10
19403;DHT22;9837;48.888;8.998;2022-10-18T16:00:43;24.50;58.60
19403;DHT22;9837;48.888;8.998;2022-10-18T16:05:36;24.40;58.50
19403;DHT22;9837;48.888;8.998;2022-10-18T16:17:47;24.10;59.00
19403;DHT22;9837;48.888;8.998;2022-10-18T16:20:22;24.10;59.10
19403;DHT22;9837;48.888;8.998;2022-10-18T16:25:17;24.10;59.00
19403;DHT22;9837;48.888;8.998;2022-10-18T16:30:14;24.00;59.00
19403;DHT22;9837;48.888;8.998;2022-10-18T16:40:21;24.00;59.00
19403;DHT22;9837;48.888;8.998;2022-10-18T21:15:00;20.50;66.20
19403;DHT22;9837;48.888;8.998;2022-10-18T21:19:52;20.40;66.80
19403;DHT22;9837;48.888;8.998;2022-10-18T21:22:18;20.40;66.90
19403;DHT22;9837;48.888;8.998;2022-10-18T21:24:43;20.50;66.90
19403;DHT22;9837;48.888;8.998;2022-10-18T21:27:09;20.40;66.70
19403;DHT22;9837;48.888;8.998;2022-10-18T21:29:35;20.40;67.40
19403;DHT22;9837;48.888;8.998;2022-10-18T21:32:00;20.30;66.70
19403;DHT22;9837;48.888;8.998;2022-10-18T21:34:27;20.30;66.80
19403;DHT22;9837;48.888;8.998;2022-10-18T21:36:52;20.20;66.90
19403;DHT22;9837;48.888;8.998;2022-10-18T21:39:21;20.20;66.90
19403;DHT22;9837;48.888;8.998;2022-10-18T21:41:47;20.20;67.00
19403;DHT22;9837;48.888;8.998;2022-10-18T21:44:13;20.20;66.80
19403;DHT22;9837;48.888;8.998;2022-10-18T21:46:39;20.20;66.70
19403;DHT22;9837;48.888;8.998;2022-10-18T21:49:08;20.20;67.00
19403;DHT22;9837;48.888;8.998;2022-10-18T21:51:34;20.20;66.90
19403;DHT22;9837;48.888;8.998;2022-10-18T21:53:59;20.10;66.90
19403;DHT22;9837;48.888;8.998;2022-10-18T21:56:27;20.10;67.10
19403;DHT22;9837;48.888;8.998;2022-10-18T21:58:53;20.00;66.60
19403;DHT22;9837;48.888;8.998;2022-10-18T22:01:30;20.00;66.60
19403;DHT22;9837;48.888;8.998;2022-10-18T22:04:00;20.00;67.40
19403;DHT22;9837;48.888;8.998;2022-10-18T22:06:27;20.00;67.20
19403;DHT22;9837;48.888;8.998;2022-10-18T22:08:58;20.00;67.40
19403;DHT22;9837;48.888;8.998;2022-10-18T22:11:37;20.00;67.50
19403;DHT22;9837;48.888;8.998;2022-10-18T22:14:03;19.90;67.50
19403;DHT22;9837;48.888;8.998;2022-10-18T22:19:00;20.00;67.80
19403;DHT22;9837;48.888;8.998;2022-10-18T22:23:53;20.00;67.40
19403;DHT22;9837;48.888;8.998;2022-10-18T22:26:26;20.00;67.60
19403;DHT22;9837;48.888;8.998;2022-10-18T22:28:58;20.00;68.00
19403;DHT22;9837;48.888;8.998;2022-10-18T22:31:26;20.00;68.20
19403;DHT22;9837;48.888;8.998;2022-10-18T22:33:54;20.10;68.20
19403;DHT22;9837;48.888;8.998;2022-10-18T22:36:20;20.20;68.40
19403;DHT22;9837;48.888;8.998;2022-10-18T22:38:46;20.20;68.60
19403;DHT22;9837;48.888;8.998;2022-10-18T22:41:12;20.20;68.80
19403;DHT22;9837;48.888;8.998;2022-10-18T22:43:38;20.30;68.60
19403;DHT22;9837;48.888;8.998;2022-10-18T22:46:06;20.30;68.60
19403;DHT22;9837;48.888;8.998;2022-10-18T22:48:33;20.20;68.60
19403;DHT22;9837;48.888;8.998;2022-10-18T22:50:59;20.20;68.70
19403;DHT22;9837;48.888;8.998;2022-10-18T22:53:25;20.30;68.50
19403;DHT22;9837;48.888;8.998;2022-10-18T22:58:17;20.30;68.50
19403;DHT22;9837;48.888;8.998;2022-10-18T23:00:43;20.30;68.80
19403;DHT22;9837;48.888;8.998;2022-10-18T23:05:39;20.40;68.70
19403;DHT22;9837;48.888;8.998;2022-10-18T23:08:06;20.40;69.40
19403;DHT22;9837;48.888;8.998;2022-10-18T23:10:32;20.30;69.40
19403;DHT22;9837;48.888;8.998;2022-10-18T23:12:58;20.30;69.50
19403;DHT22;9837;48.888;8.998;2022-10-18T23:15:24;20.30;69.20
19403;DHT22;9837;48.888;8.998;2022-10-18T23:17:49;20.30;69.00
19403;DHT22;9837;48.888;8.998;2022-10-18T23:20:19;20.30;68.80
19403;DHT22;9837;48.888;8.998;2022-10-18T23:22:45;20.30;68.80
19403;DHT22;9837;48.888;8.998;2022-10-18T23:25:10;20.20;68.80
19403;DHT22;9837;48.888;8.998;2022-10-18T23:27:36;20.20;69.00
19403;DHT22;9837;48.888;8.998;2022-10-18T23:30:02;20.20;69.00
19403;DHT22;9837;48.888;8.998;2022-10-18T23:32:28;20.20;68.90
19403;DHT22;9837;48.888;8.998;2022-10-18T23:34:54;20.30;68.90
19403;DHT22;9837;48.888;8.998;2022-10-18T23:37:20;20.20;68.20
19403;DHT22;9837;48.888;8.998;2022-10-18T23:42:11;20.00;68.30
19403;DHT22;9837;48.888;8.998;2022-10-18T23:44:37;20.00;68.40
19403;DHT22;9837;48.888;8.998;2022-10-18T23:47:03;20.00;68.30
19403;DHT22;9837;48.888;8.998;2022-10-18T23:51:54;20.00;68.70
19403;DHT22;9837;48.888;8.998;2022-10-18T23:54:20;20.10;68.80
19403;DHT22;9837;48.888;8.998;2022-10-18T23:56:46;20.10;68.60
19403;DHT22;9837;48.888;8.998;2022-10-18T23:59:11;20.10;68.50
